createdAt,value
2018-01-16T00:00:21.971Z,6.80
2018-01-16T00:02:50.193Z,6.90
2018-01-16T00:05:18.087Z,6.80
2018-01-16T00:07:45.951Z,6.80
2018-01-16T00:10:13.882Z,6.90
2018-01-16T00:12:41.711Z,6.90
2018-01-16T00:15:09.975Z,6.90
2018-01-16T00:17:37.435Z,6.90
2018-01-16T00:20:05.963Z,7.00
2018-01-16T00:22:41.429Z,7.00
2018-01-16T00:25:08.930Z,7.00
2018-01-16T00:27:37.240Z,7.00
2018-01-16T00:30:04.704Z,7.00
2018-01-16T00:32:32.619Z,7.20
2018-01-16T00:35:00.225Z,7.10
2018-01-16T00:37:27.695Z,7.10
2018-01-16T00:39:55.565Z,7.00
2018-01-16T00:42:23.026Z,7.10
2018-01-16T00:44:50.883Z,7.10
2018-01-16T00:47:18.558Z,7.10
2018-01-16T00:49:46.018Z,7.10
2018-01-16T00:52:14.998Z,6.90
2018-01-16T00:54:42.542Z,6.80
2018-01-16T00:57:11.142Z,6.70
2018-01-16T00:59:38.616Z,6.70
2018-01-16T01:02:07.168Z,6.70
2018-01-16T01:04:34.742Z,6.60
2018-01-16T01:07:02.975Z,6.70
2018-01-16T01:09:30.871Z,6.60
2018-01-16T01:11:58.343Z,6.60
2018-01-16T01:14:26.580Z,6.50
2018-01-16T01:16:54.447Z,6.40
2018-01-16T01:19:22.329Z,6.40
2018-01-16T01:21:50.583Z,6.40
2018-01-16T01:24:18.069Z,6.40
2018-01-16T01:26:45.547Z,6.40
2018-01-16T01:29:13.045Z,6.40
2018-01-16T01:31:40.922Z,6.50
2018-01-16T01:34:09.222Z,6.60
2018-01-16T01:36:37.090Z,6.60
2018-01-16T01:39:05.339Z,6.70
2018-01-16T01:41:33.196Z,6.80
2018-01-16T01:44:01.067Z,6.80
2018-01-16T01:46:29.068Z,6.80
2018-01-16T01:49:08.371Z,6.80
2018-01-16T01:51:36.637Z,6.80
2018-01-16T01:54:04.916Z,6.70
2018-01-16T01:56:33.231Z,6.70
2018-01-16T01:59:01.475Z,6.70
2018-01-16T02:01:29.334Z,6.70
2018-01-16T02:03:57.195Z,6.80
2018-01-16T02:06:25.447Z,6.80
2018-01-16T02:08:54.428Z,6.80
2018-01-16T02:11:21.895Z,6.90
2018-01-16T02:13:49.780Z,6.90
2018-01-16T02:16:17.243Z,6.90
2018-01-16T02:18:45.496Z,6.90
2018-01-16T02:21:13.749Z,6.90
2018-01-16T02:23:41.246Z,7.00
2018-01-16T02:26:09.483Z,7.00
2018-01-16T02:28:37.159Z,7.00
2018-01-16T02:31:04.623Z,7.00
2018-01-16T02:33:32.114Z,7.00
2018-01-16T02:35:59.807Z,7.10
2018-01-16T02:38:28.050Z,7.10
2018-01-16T02:40:55.915Z,7.00
2018-01-16T02:43:24.275Z,7.10
2018-01-16T02:45:52.141Z,7.10
2018-01-16T02:48:20.367Z,7.10
2018-01-16T02:50:49.012Z,7.20
2018-01-16T02:53:16.467Z,7.20
2018-01-16T02:55:44.706Z,7.20
2018-01-16T02:58:12.606Z,7.20
2018-01-16T03:00:40.929Z,7.20
2018-01-16T03:03:09.555Z,7.30
2018-01-16T03:05:37.202Z,7.30
2018-01-16T03:08:04.679Z,7.20
2018-01-16T03:10:33.114Z,7.20
2018-01-16T03:13:01.085Z,7.20
2018-01-16T03:15:28.547Z,7.20
2018-01-16T03:17:56.019Z,7.10
2018-01-16T03:20:24.150Z,7.20
2018-01-16T03:22:52.009Z,7.20
2018-01-16T03:25:19.883Z,7.20
2018-01-16T03:27:47.715Z,7.20
2018-01-16T03:30:15.631Z,7.20
2018-01-16T03:32:43.187Z,7.20
2018-01-16T03:35:11.887Z,7.10
2018-01-16T03:37:39.351Z,7.20
2018-01-16T03:40:06.840Z,7.20
2018-01-16T03:42:34.670Z,7.20
2018-01-16T03:45:02.131Z,7.20
2018-01-16T03:47:30.369Z,7.20
2018-01-16T03:49:58.724Z,7.20
2018-01-16T03:52:27.039Z,7.10
2018-01-16T03:54:54.598Z,7.10
2018-01-16T03:57:23.131Z,7.10
2018-01-16T03:59:50.588Z,7.10
2018-01-16T04:02:18.823Z,7.10
2018-01-16T04:04:46.453Z,7.20
2018-01-16T04:07:14.674Z,7.10
2018-01-16T04:09:43.024Z,7.10
2018-01-16T04:12:11.456Z,7.10
2018-01-16T04:14:39.323Z,7.10
2018-01-16T04:17:06.796Z,7.10
2018-01-16T04:19:35.368Z,7.00
2018-01-16T04:22:03.603Z,7.00
2018-01-16T04:24:31.833Z,7.10
2018-01-16T04:27:00.295Z,7.10
2018-01-16T04:29:28.171Z,7.20
2018-01-16T04:31:56.411Z,7.10
2018-01-16T04:34:24.453Z,7.10
2018-01-16T04:36:52.321Z,7.10
2018-01-16T04:39:20.559Z,7.10
2018-01-16T04:41:49.658Z,7.00
2018-01-16T04:44:18.328Z,7.00
2018-01-16T04:46:46.575Z,7.00
2018-01-16T04:49:15.188Z,7.00
2018-01-16T04:51:43.430Z,6.90
2018-01-16T04:54:10.973Z,7.00
2018-01-16T04:56:39.707Z,6.90
2018-01-16T04:59:07.181Z,6.90
2018-01-16T05:01:35.398Z,6.90
2018-01-16T05:04:03.969Z,6.90
2018-01-16T05:06:31.666Z,6.90
2018-01-16T05:09:00.543Z,6.90
2018-01-16T05:11:28.951Z,6.90
2018-01-16T05:13:56.819Z,6.90
2018-01-16T05:16:24.297Z,6.90
2018-01-16T05:18:52.960Z,6.90
2018-01-16T05:21:20.422Z,6.90
2018-01-16T05:23:48.282Z,6.90
2018-01-16T05:26:16.872Z,6.90
2018-01-16T05:28:44.731Z,6.90
2018-01-16T05:31:12.975Z,6.90
2018-01-16T05:33:41.539Z,6.90
2018-01-16T05:36:09.023Z,6.90
2018-01-16T05:38:36.488Z,6.80
2018-01-16T05:41:04.043Z,6.50
2018-01-16T05:43:31.511Z,6.30
2018-01-16T05:45:59.371Z,6.30
2018-01-16T05:48:27.031Z,6.20
2018-01-16T05:50:54.931Z,6.10
2018-01-16T05:53:22.793Z,6.20
2018-01-16T05:55:51.004Z,6.20
2018-01-16T05:58:18.973Z,6.20
2018-01-16T06:00:47.656Z,6.30
2018-01-16T06:03:15.217Z,6.30
2018-01-16T06:05:43.083Z,6.40
2018-01-16T06:08:11.684Z,6.40
2018-01-16T06:10:39.483Z,6.40
2018-01-16T06:13:08.271Z,6.40
2018-01-16T06:15:35.733Z,6.40
2018-01-16T06:18:03.801Z,6.50
2018-01-16T06:20:32.419Z,6.60
2018-01-16T06:22:59.892Z,6.60
2018-01-16T06:25:28.426Z,6.70
2018-01-16T06:27:55.926Z,6.70
2018-01-16T06:30:23.391Z,6.80
2018-01-16T06:32:51.961Z,6.90
2018-01-16T06:35:19.811Z,6.90
2018-01-16T06:37:47.694Z,6.90
2018-01-16T06:40:15.823Z,6.80
2018-01-16T06:42:43.679Z,7.00
2018-01-16T06:45:11.531Z,7.10
2018-01-16T06:47:39.627Z,7.00
2018-01-16T06:50:07.855Z,7.20
2018-01-16T06:52:35.319Z,7.20
2018-01-16T06:55:03.158Z,7.00
2018-01-16T06:57:30.624Z,7.00
2018-01-16T06:59:58.475Z,6.80
2018-01-16T07:02:26.627Z,6.70
2018-01-16T07:04:54.496Z,6.40
2018-01-16T07:07:22.360Z,6.30
2018-01-16T07:09:50.530Z,6.20
2018-01-16T07:12:18.391Z,6.10
2018-01-16T07:14:45.863Z,6.00
2018-01-16T07:17:14.412Z,5.90
2018-01-16T07:19:42.670Z,5.60
2018-01-16T07:22:10.216Z,5.50
2018-01-16T07:24:37.703Z,5.40
2018-01-16T07:27:05.160Z,5.20
2018-01-16T07:29:32.670Z,5.20
2018-01-16T07:32:00.352Z,5.20
2018-01-16T07:34:27.820Z,5.00
2018-01-16T07:36:55.291Z,4.80
2018-01-16T07:39:23.816Z,4.90
2018-01-16T07:41:51.683Z,4.60
2018-01-16T07:44:19.554Z,4.50
2018-01-16T07:46:48.118Z,4.40
2018-01-16T07:49:15.988Z,4.50
2018-01-16T07:51:44.211Z,4.40
2018-01-16T07:54:12.479Z,4.50
2018-01-16T07:56:40.727Z,4.70
2018-01-16T07:59:08.622Z,4.90
2018-01-16T08:01:36.864Z,4.80
2018-01-16T08:04:04.357Z,4.90
2018-01-16T08:06:31.814Z,4.90
2018-01-16T08:08:59.803Z,4.90
2018-01-16T08:11:27.659Z,5.00
2018-01-16T08:13:55.128Z,5.00
2018-01-16T08:16:22.889Z,4.90
2018-01-16T08:18:50.748Z,5.00
2018-01-16T08:21:19.106Z,4.90
2018-01-16T08:23:46.819Z,4.90
2018-01-16T08:26:14.413Z,4.80
2018-01-16T08:28:42.705Z,4.80
2018-01-16T08:31:11.007Z,4.90
2018-01-16T08:33:38.949Z,4.90
2018-01-16T08:36:06.799Z,4.90
2018-01-16T08:38:34.549Z,5.10
2018-01-16T08:41:02.423Z,5.20
2018-01-16T08:43:30.290Z,5.50
2018-01-16T08:45:57.871Z,5.80
2018-01-16T08:48:25.340Z,6.00
2018-01-16T08:50:52.892Z,6.00
2018-01-16T08:53:21.127Z,5.90
2018-01-16T08:55:49.407Z,5.80
2018-01-16T08:58:17.716Z,5.80
2018-01-16T09:00:46.687Z,5.70
2018-01-16T09:03:14.235Z,5.70
2018-01-16T09:05:42.580Z,5.60
2018-01-16T09:08:10.616Z,5.60
2018-01-16T09:10:38.075Z,5.60
2018-01-16T09:13:05.555Z,5.90
2018-01-16T09:15:33.663Z,6.00
2018-01-16T09:18:01.980Z,6.00
2018-01-16T09:20:29.838Z,6.40
2018-01-16T09:22:58.488Z,6.80
2018-01-16T09:25:26.781Z,6.60
2018-01-16T09:27:54.242Z,6.50
2018-01-16T09:30:22.138Z,6.20
2018-01-16T09:32:49.687Z,6.10
2018-01-16T09:35:17.984Z,5.90
2018-01-16T09:37:45.981Z,6.00
2018-01-16T09:40:13.903Z,5.90
2018-01-16T09:42:41.771Z,6.10
2018-01-16T09:45:09.380Z,6.40
2018-01-16T09:47:37.619Z,6.40
2018-01-16T09:50:05.099Z,6.40
2018-01-16T09:52:34.637Z,6.30
2018-01-16T09:55:02.913Z,6.30
2018-01-16T09:57:30.758Z,6.40
2018-01-16T09:59:58.852Z,6.10
2018-01-16T10:02:26.712Z,6.00
2018-01-16T10:04:54.935Z,6.10
2018-01-16T10:07:22.887Z,6.20
2018-01-16T10:09:50.363Z,6.20
2018-01-16T10:12:18.884Z,6.50
2018-01-16T10:14:47.438Z,6.90
2018-01-16T10:17:15.683Z,6.90
2018-01-16T10:19:43.935Z,7.00
2018-01-16T10:22:11.895Z,7.20
2018-01-16T10:24:39.365Z,7.20
2018-01-16T10:27:06.831Z,7.30
2018-01-16T10:29:34.584Z,7.00
2018-01-16T10:32:02.815Z,7.30
2018-01-16T10:34:31.067Z,8.00
2018-01-16T10:36:58.876Z,9.10
2018-01-16T10:39:26.379Z,9.20
2018-01-16T10:41:54.619Z,8.60
2018-01-16T10:44:23.195Z,7.80
2018-01-16T10:46:51.446Z,7.60
2018-01-16T10:49:18.964Z,7.80
2018-01-16T10:51:47.099Z,7.80
2018-01-16T10:54:15.353Z,8.30
2018-01-16T10:56:42.875Z,8.90
2018-01-16T10:59:10.697Z,9.70
2018-01-16T11:01:38.566Z,9.30
2018-01-16T11:04:06.435Z,8.70
2018-01-16T11:06:34.679Z,8.10
2018-01-16T11:09:02.568Z,8.00
2018-01-16T11:11:30.434Z,8.30
2018-01-16T11:13:58.247Z,8.30
2018-01-16T11:16:25.805Z,7.50
2018-01-16T11:18:53.285Z,7.40
2018-01-16T11:21:20.810Z,7.10
2018-01-16T11:23:48.278Z,6.90
2018-01-16T11:26:16.149Z,6.90
2018-01-16T11:28:43.971Z,7.30
2018-01-16T11:31:11.841Z,8.10
2018-01-16T11:33:40.087Z,8.60
2018-01-16T11:36:07.890Z,8.30
2018-01-16T11:38:36.144Z,7.60
2018-01-16T11:41:03.667Z,7.40
2018-01-16T11:43:31.372Z,7.60
2018-01-16T11:45:59.704Z,7.30
2018-01-16T11:48:27.254Z,7.30
2018-01-16T11:50:55.794Z,7.10
2018-01-16T11:53:24.072Z,7.10
2018-01-16T11:55:51.943Z,7.10
2018-01-16T11:58:20.531Z,6.90
2018-01-16T12:00:47.999Z,7.10
2018-01-16T12:03:15.490Z,7.20
2018-01-16T12:05:43.599Z,7.30
2018-01-16T12:08:11.503Z,7.20
2018-01-16T12:10:39.785Z,7.10
2018-01-16T12:13:08.685Z,7.00
2018-01-16T12:15:36.935Z,7.30
2018-01-16T12:18:04.921Z,7.50
2018-01-16T12:20:32.483Z,7.20
2018-01-16T12:23:00.356Z,7.00
2018-01-16T12:25:28.289Z,7.00
2018-01-16T12:27:56.200Z,6.80
2018-01-16T12:30:23.667Z,7.00
2018-01-16T12:32:52.172Z,7.20
2018-01-16T12:35:20.403Z,7.30
2018-01-16T12:37:47.885Z,7.40
2018-01-16T12:40:15.651Z,7.70
2018-01-16T12:42:43.173Z,7.60
2018-01-16T12:45:11.047Z,8.30
2018-01-16T12:47:38.858Z,8.30
2018-01-16T12:50:07.835Z,8.70
2018-01-16T12:52:35.310Z,8.30
2018-01-16T12:55:03.896Z,8.10
2018-01-16T12:57:32.130Z,8.00
2018-01-16T12:59:59.627Z,8.20
2018-01-16T13:02:27.879Z,8.40
2018-01-16T13:04:56.130Z,8.50
2018-01-16T13:07:23.595Z,8.40
2018-01-16T13:09:51.199Z,8.70
2018-01-16T13:12:19.515Z,8.20
2018-01-16T13:14:47.370Z,8.00
2018-01-16T13:17:14.972Z,7.80
2018-01-16T13:19:42.451Z,7.40
2018-01-16T13:22:09.962Z,7.10
2018-01-16T13:24:38.204Z,7.10
2018-01-16T13:27:06.311Z,7.00
2018-01-16T13:29:34.180Z,6.90
2018-01-16T13:32:01.996Z,7.00
2018-01-16T13:34:29.878Z,7.00
2018-01-16T13:36:57.342Z,7.10
2018-01-16T13:39:25.854Z,6.90
2018-01-16T13:41:53.731Z,6.90
2018-01-16T13:44:21.631Z,7.00
2018-01-16T13:46:49.908Z,7.00
2018-01-16T13:49:18.159Z,7.00
2018-01-16T13:51:47.225Z,7.00
2018-01-16T13:54:16.219Z,7.00
2018-01-16T13:56:43.699Z,7.00
2018-01-16T13:59:12.003Z,6.90
2018-01-16T14:01:40.499Z,6.80
2018-01-16T14:04:08.797Z,6.80
2018-01-16T14:06:36.536Z,6.80
2018-01-16T14:09:04.404Z,6.70
2018-01-16T14:11:32.657Z,6.70
2018-01-16T14:14:00.655Z,6.70
2018-01-16T14:16:28.903Z,6.60
2018-01-16T14:18:56.387Z,6.80
2018-01-16T14:21:24.891Z,6.90
2018-01-16T14:23:52.361Z,6.80
2018-01-16T14:26:19.823Z,6.80
2018-01-16T14:28:47.639Z,6.90
2018-01-16T14:31:15.902Z,6.80
2018-01-16T14:33:43.918Z,6.60
2018-01-16T14:36:12.605Z,6.60
2018-01-16T14:38:40.883Z,6.60
2018-01-16T14:41:08.749Z,6.60
2018-01-16T14:43:36.999Z,6.50
2018-01-16T14:46:04.469Z,6.60
2018-01-16T14:48:32.835Z,6.50
2018-01-16T14:51:00.995Z,6.60
2018-01-16T14:53:28.899Z,6.80
2018-01-16T14:55:57.175Z,6.60
2018-01-16T14:58:24.684Z,6.50
2018-01-16T15:00:53.444Z,6.50
2018-01-16T15:03:20.916Z,6.50
2018-01-16T15:05:49.421Z,6.60
2018-01-16T15:08:17.708Z,6.60
2018-01-16T15:10:45.580Z,6.60
2018-01-16T15:13:13.526Z,6.40
2018-01-16T15:15:41.395Z,6.30
2018-01-16T15:18:09.707Z,6.30
2018-01-16T15:20:37.266Z,6.20
2018-01-16T15:23:05.923Z,6.10
2018-01-16T15:25:34.160Z,6.20
2018-01-16T15:28:02.195Z,6.20
2018-01-16T15:30:29.684Z,6.20
2018-01-16T15:32:57.147Z,6.20
2018-01-16T15:35:25.337Z,6.20
2018-01-16T15:37:53.598Z,6.10
2018-01-16T15:40:21.067Z,6.10
2018-01-16T15:42:48.851Z,6.10
2018-01-16T15:45:16.748Z,6.10
2018-01-16T15:47:44.232Z,6.10
2018-01-16T15:50:12.966Z,6.00
2018-01-16T15:52:40.434Z,6.10
2018-01-16T15:55:08.028Z,6.10
2018-01-16T15:57:36.835Z,6.10
2018-01-16T16:00:04.743Z,6.00
2018-01-16T16:02:32.638Z,5.90
2018-01-16T16:05:00.451Z,5.80
2018-01-16T16:07:28.319Z,5.80
2018-01-16T16:09:56.184Z,6.00
2018-01-16T16:12:25.483Z,5.80
2018-01-16T16:14:53.728Z,5.60
2018-01-16T16:17:21.622Z,5.50
2018-01-16T16:19:50.164Z,5.40
2018-01-16T16:22:17.686Z,5.40
2018-01-16T16:24:45.173Z,5.30
2018-01-16T16:27:13.062Z,5.40
2018-01-16T16:29:41.427Z,5.60
2018-01-16T16:32:09.312Z,5.70
2018-01-16T16:34:37.107Z,5.70
2018-01-16T16:37:05.340Z,5.70
2018-01-16T16:39:33.615Z,5.50
2018-01-16T16:42:02.152Z,5.60
2018-01-16T16:44:30.384Z,5.50
2018-01-16T16:46:58.639Z,5.50
2018-01-16T16:49:27.471Z,5.30
2018-01-16T16:51:55.338Z,5.20
2018-01-16T16:54:23.209Z,5.00
2018-01-16T16:56:51.791Z,5.00
2018-01-16T16:59:19.654Z,4.90
2018-01-16T17:01:47.520Z,4.90
2018-01-16T17:04:16.227Z,5.00
2018-01-16T17:06:44.179Z,5.10
2018-01-16T17:09:12.467Z,5.10
2018-01-16T17:11:41.157Z,4.90
2018-01-16T17:14:09.030Z,4.90
2018-01-16T17:16:36.908Z,5.00
2018-01-16T17:19:05.257Z,4.70
2018-01-16T17:21:32.739Z,4.60
2018-01-16T17:24:00.200Z,4.50
2018-01-16T17:26:28.463Z,4.50
2018-01-16T17:28:56.716Z,4.40
2018-01-16T17:31:24.584Z,4.40
2018-01-16T17:33:53.125Z,4.50
2018-01-16T17:36:21.351Z,4.60
2018-01-16T17:38:49.311Z,4.60
2018-01-16T17:41:17.784Z,4.70
2018-01-16T17:43:46.078Z,4.70
2018-01-16T17:46:14.295Z,4.80
2018-01-16T17:48:42.276Z,4.90
2018-01-16T17:51:11.259Z,4.90
2018-01-16T17:53:39.139Z,5.00
2018-01-16T17:56:07.389Z,4.90
2018-01-16T17:58:35.255Z,4.90
2018-01-16T18:01:02.815Z,4.80
2018-01-16T18:03:30.590Z,4.80
2018-01-16T18:05:59.388Z,4.70
2018-01-16T18:08:27.754Z,4.70
2018-01-16T18:10:56.038Z,4.70
2018-01-16T18:13:24.275Z,4.60
2018-01-16T18:15:52.523Z,4.60
2018-01-16T18:18:20.859Z,4.50
2018-01-16T18:20:48.406Z,4.50
2018-01-16T18:23:17.020Z,4.60
2018-01-16T18:25:44.772Z,4.50
2018-01-16T18:28:13.019Z,4.40
2018-01-16T18:30:41.296Z,4.40
2018-01-16T18:33:09.226Z,4.50
2018-01-16T18:35:36.799Z,4.40
2018-01-16T18:38:05.062Z,4.40
2018-01-16T18:40:33.966Z,4.40
2018-01-16T18:43:02.227Z,4.50
2018-01-16T18:45:30.459Z,4.50
2018-01-16T18:47:59.396Z,4.60
2018-01-16T18:50:27.633Z,4.60
2018-01-16T18:52:55.174Z,4.70
2018-01-16T18:55:22.933Z,4.60
2018-01-16T18:57:51.555Z,4.70
2018-01-16T19:00:19.032Z,4.70
2018-01-16T19:02:47.219Z,4.70
2018-01-16T19:05:15.077Z,4.60
2018-01-16T19:07:43.307Z,4.70
2018-01-16T19:10:11.120Z,4.60
2018-01-16T19:12:39.362Z,4.60
2018-01-16T19:15:07.619Z,4.70
2018-01-16T19:17:36.356Z,4.80
2018-01-16T19:20:04.655Z,4.70
2018-01-16T19:22:32.535Z,4.80
2018-01-16T19:25:00.016Z,4.80
2018-01-16T19:27:28.261Z,4.80
2018-01-16T19:29:56.134Z,4.80
2018-01-16T19:32:24.591Z,4.80
2018-01-16T19:34:52.470Z,4.90
2018-01-16T19:37:19.932Z,4.80
2018-01-16T19:39:47.749Z,4.80
2018-01-16T19:42:15.225Z,4.80
2018-01-16T19:44:43.447Z,4.80
2018-01-16T19:47:10.927Z,4.80
2018-01-16T19:49:39.896Z,4.80
2018-01-16T19:52:07.359Z,4.90
2018-01-16T19:54:35.893Z,4.90
2018-01-16T19:57:04.154Z,5.00
2018-01-16T19:59:32.921Z,5.00
2018-01-16T20:02:01.415Z,5.00
2018-01-16T20:04:28.895Z,5.00
2018-01-16T20:06:57.128Z,5.00
2018-01-16T20:09:25.491Z,5.10
2018-01-16T20:11:53.730Z,4.90
2018-01-16T20:14:21.188Z,4.70
2018-01-16T20:16:48.820Z,4.70
2018-01-16T20:19:16.745Z,4.60
2018-01-16T20:21:44.809Z,4.60
2018-01-16T20:24:13.421Z,4.60
2018-01-16T20:26:40.963Z,4.60
2018-01-16T20:29:08.827Z,4.60
2018-01-16T20:31:36.376Z,4.20
2018-01-16T20:34:03.844Z,4.50
2018-01-16T20:36:31.310Z,4.50
2018-01-16T20:38:59.563Z,4.60
2018-01-16T20:41:27.801Z,4.60
2018-01-16T20:43:56.031Z,4.60
2018-01-16T20:46:24.338Z,4.70
2018-01-16T20:48:52.669Z,4.70
2018-01-16T20:51:20.895Z,4.70
2018-01-16T20:53:48.371Z,4.70
2018-01-16T20:56:16.267Z,4.80
2018-01-16T20:58:43.734Z,4.80
2018-01-16T21:01:11.880Z,4.90
2018-01-16T21:03:39.363Z,5.00
2018-01-16T21:06:07.269Z,5.00
2018-01-16T21:08:35.803Z,5.00
2018-01-16T21:11:04.070Z,5.10
2018-01-16T21:13:31.902Z,5.10
2018-01-16T21:16:00.466Z,5.10
2018-01-16T21:18:28.339Z,5.10
2018-01-16T21:20:55.805Z,5.10
2018-01-16T21:23:23.262Z,5.10
2018-01-16T21:25:51.121Z,5.10
2018-01-16T21:28:18.985Z,5.10
2018-01-16T21:30:47.174Z,5.10
2018-01-16T21:33:15.081Z,5.10
2018-01-16T21:35:43.051Z,5.00
2018-01-16T21:38:10.515Z,5.10
2018-01-16T21:40:38.475Z,5.10
2018-01-16T21:43:06.033Z,5.20
2018-01-16T21:45:33.695Z,5.10
2018-01-16T21:48:01.541Z,5.20
2018-01-16T21:50:29.761Z,5.10
2018-01-16T21:52:57.957Z,5.10
2018-01-16T21:55:26.920Z,4.80
2018-01-16T21:57:54.778Z,4.80
2018-01-16T22:00:23.015Z,4.60
2018-01-16T22:02:51.266Z,4.60
2018-01-16T22:05:19.122Z,4.60
2018-01-16T22:07:47.205Z,4.50
2018-01-16T22:10:14.661Z,4.50
2018-01-16T22:12:42.916Z,4.70
2018-01-16T22:15:11.128Z,4.70
2018-01-16T22:17:38.974Z,4.70
2018-01-16T22:20:06.437Z,4.70
2018-01-16T22:22:34.185Z,4.80
2018-01-16T22:25:02.047Z,4.80
2018-01-16T22:27:30.269Z,4.70
2018-01-16T22:29:58.721Z,4.70
2018-01-16T22:32:26.226Z,4.40
2018-01-16T22:34:53.682Z,4.20
2018-01-16T22:37:22.298Z,4.10
2018-01-16T22:39:50.198Z,4.10
2018-01-16T22:42:18.055Z,4.10
2018-01-16T22:44:46.324Z,4.20
2018-01-16T22:47:14.173Z,4.20
2018-01-16T22:49:42.522Z,4.20
2018-01-16T22:52:10.681Z,4.20
2018-01-16T22:54:38.540Z,4.20
2018-01-16T22:57:06.765Z,4.20
2018-01-16T22:59:34.237Z,4.20
2018-01-16T23:02:01.691Z,4.20
2018-01-16T23:04:29.158Z,4.40
2018-01-16T23:06:57.053Z,4.40
2018-01-16T23:09:24.905Z,4.60
2018-01-16T23:11:53.144Z,4.70
2018-01-16T23:14:21.555Z,4.80
2018-01-16T23:16:49.481Z,4.80
2018-01-16T23:19:17.840Z,4.70
2018-01-16T23:21:45.715Z,4.70
2018-01-16T23:24:13.179Z,4.70
2018-01-16T23:26:41.082Z,4.80
2018-01-16T23:29:09.161Z,4.60
2018-01-16T23:31:37.383Z,4.60
2018-01-16T23:34:04.933Z,4.50
2018-01-16T23:36:32.747Z,4.20
2018-01-16T23:39:00.995Z,4.10
2018-01-16T23:41:28.469Z,4.00
2018-01-16T23:43:55.938Z,3.90
2018-01-16T23:46:23.802Z,4.00
2018-01-16T23:48:51.277Z,4.10
2018-01-16T23:51:19.848Z,4.00
2018-01-16T23:53:48.169Z,4.00
2018-01-16T23:56:16.407Z,4.00
2018-01-16T23:58:44.985Z,4.00
